Terminal Aerodrome Forecast
Issued by NWS Amarillo, TX

Current Version | Previous Version | Text Only | Print | Product List | Glossary On
Versions: 1 2 3 4 5 6 7 8 9 10 11 12 13 14 15 16 17
000
FTUS44 KAMA 061700
TAFAMA
TAF
KAMA 061720Z 0618/0718 32014KT P6SM BKN200
     FM062100 01018G28KT P6SM SCT050 OVC200
      TEMPO 0621/0624 5SM TSRA BKN050CB
     FM070000 02021KT 4SM TSRA BKN015CB
     FM070900 01014KT 5SM -RA BR OVC010=

USA.gov is the U.S. government's official web portal to all federal, state and local government web resources and services.